Time;durP1;ratioP1;P1;durP2;ratioP2;P2;SDS_P1;SDS_P2;PMS_P1;PMS_P2;Temp;Humidity;BMP_temperature;BMP_pressure;BME280_temperature;BME280_humidity;BME280_pressure;Samples;Min_cycle;Max_cycle;Signal;HPM_P1;HPM_P2
2023/07/11 00:02:24;;;;;;;5.00;2.60;;;17.20;99.90;;;;;;4878248;29;20049;-88
2023/07/11 00:04:50;;;;;;;3.40;2.67;;;17.30;99.90;;;;;;4876665;29;20037;-87
2023/07/11 00:07:15;;;;;;;3.65;2.72;;;17.30;99.90;;;;;;4879500;29;20037;-86
2023/07/11 00:09:46;;;;;;;3.22;2.40;;;17.30;99.90;;;;;;4895256;29;20045;-87
2023/07/11 00:12:12;;;;;;;4.68;2.47;;;17.30;99.90;;;;;;4885094;29;20028;-86
2023/07/11 00:14:37;;;;;;;4.13;2.78;;;17.30;99.90;;;;;;4866124;29;20043;-86
2023/07/11 00:17:05;;;;;;;4.30;2.50;;;17.30;99.90;;;;;;4860444;29;20556;-87
2023/07/11 00:19:44;;;;;;;5.53;2.38;;;17.30;99.90;;;;;;4880410;29;20102;-87
2023/07/11 00:22:10;;;;;;;4.35;2.55;;;17.30;99.90;;;;;;4864568;29;20043;-87
2023/07/11 00:24:36;;;;;;;4.53;3.03;;;17.20;99.90;;;;;;4881676;29;20131;-86
2023/07/11 00:27:01;;;;;;;5.60;2.53;;;17.20;99.90;;;;;;4869301;29;20099;-87
2023/07/11 00:29:27;;;;;;;3.75;2.60;;;17.20;99.90;;;;;;4882431;29;20045;-87
2023/07/11 00:31:52;;;;;;;4.07;2.60;;;17.20;99.90;;;;;;4878580;29;20043;-86
2023/07/11 00:34:18;;;;;;;3.38;2.30;;;17.20;99.90;;;;;;4884599;29;20036;-86
2023/07/11 00:36:44;;;;;;;4.43;2.47;;;17.20;99.90;;;;;;4876144;29;20041;-86
2023/07/11 00:39:12;;;;;;;2.70;2.28;;;17.20;99.90;;;;;;4875670;29;20040;-87
2023/07/11 00:41:38;;;;;;;5.82;2.58;;;17.10;99.90;;;;;;4882406;29;20617;-86
2023/07/11 00:44:11;;;;;;;3.08;2.38;;;17.10;99.90;;;;;;4879503;29;20045;-86
2023/07/11 00:46:37;;;;;;;3.60;2.42;;;17.10;99.90;;;;;;4881811;29;20040;-90
2023/07/11 00:49:03;;;;;;;4.93;2.67;;;17.20;99.90;;;;;;4880452;29;20469;-89
2023/07/11 00:51:34;;;;;;;3.53;2.47;;;17.20;99.90;;;;;;4883828;29;20048;-89
2023/07/11 00:54:00;;;;;;;5.40;2.78;;;17.30;99.90;;;;;;4860493;29;20051;-89
2023/07/11 00:56:29;;;;;;;5.32;2.75;;;17.30;99.90;;;;;;4879276;29;20147;-87
2023/07/11 00:58:57;;;;;;;5.10;2.70;;;17.20;99.90;;;;;;4881157;29;20040;-86
2023/07/11 01:01:23;;;;;;;3.50;2.78;;;17.30;99.90;;;;;;4863955;29;20055;-87
2023/07/11 01:03:51;;;;;;;6.18;2.95;;;17.30;99.90;;;;;;4874894;29;20059;-86
2023/07/11 01:06:21;;;;;;;8.35;3.08;;;17.30;99.90;;;;;;4867064;29;20044;-87
2023/07/11 01:08:49;;;;;;;6.57;3.05;;;17.40;99.90;;;;;;4882748;29;20123;-88
2023/07/11 01:11:15;;;;;;;6.63;2.95;;;17.30;99.90;;;;;;4861548;29;20409;-87
2023/07/11 01:13:41;;;;;;;8.38;3.28;;;17.30;99.90;;;;;;4880910;29;20043;-87
2023/07/11 01:16:07;;;;;;;5.57;3.08;;;17.30;99.90;;;;;;4872765;29;20033;-87
2023/07/11 01:18:33;;;;;;;4.10;2.75;;;17.30;99.90;;;;;;4854444;29;20124;-86
2023/07/11 01:20:59;;;;;;;5.05;3.05;;;17.30;99.90;;;;;;4884435;29;20312;-87
2023/07/11 01:23:25;;;;;;;6.55;2.80;;;17.30;99.90;;;;;;4875457;29;20476;-87
2023/07/11 01:26:02;;;;;;;8.52;3.67;;;17.30;99.90;;;;;;4870223;29;20069;-87
2023/07/11 01:28:28;;;;;;;4.15;3.05;;;17.30;99.90;;;;;;4897507;29;20037;-87
2023/07/11 01:30:54;;;;;;;5.40;2.70;;;17.30;99.90;;;;;;4867832;29;20105;-86
2023/07/11 01:33:24;;;;;;;5.13;3.20;;;17.30;99.90;;;;;;4880461;29;20045;-87
2023/07/11 01:35:51;;;;;;;5.80;3.22;;;17.30;99.90;;;;;;4864676;29;20147;-87
2023/07/11 01:38:18;;;;;;;7.07;3.83;;;17.30;99.90;;;;;;4857062;29;20072;-86
2023/07/11 01:40:44;;;;;;;6.05;3.85;;;17.30;99.90;;;;;;4875779;29;20036;-86
2023/07/11 01:43:10;;;;;;;5.47;3.50;;;17.30;99.90;;;;;;4906085;29;20041;-86
2023/07/11 01:45:36;;;;;;;6.60;3.65;;;17.30;99.90;;;;;;4873352;29;20051;-86
2023/07/11 01:48:02;;;;;;;6.78;3.75;;;17.30;99.90;;;;;;4900088;29;20036;-87
2023/07/11 01:50:27;;;;;;;9.10;4.68;;;17.30;99.90;;;;;;4890652;29;20044;-86
2023/07/11 01:52:53;;;;;;;7.43;4.18;;;17.20;99.90;;;;;;4867439;29;20040;-88
2023/07/11 01:55:19;;;;;;;4.95;3.95;;;17.20;99.90;;;;;;4873988;29;20036;-87
2023/07/11 01:57:44;;;;;;;7.13;4.30;;;17.20;99.90;;;;;;4879573;29;20083;-86
2023/07/11 02:00:11;;;;;;;5.85;4.03;;;17.20;99.90;;;;;;4862930;29;20131;-87
2023/07/11 02:02:36;;;;;;;7.75;4.38;;;17.20;99.90;;;;;;4866474;29;20055;-87
2023/07/11 02:05:02;;;;;;;6.38;4.43;;;17.10;99.90;;;;;;4867621;29;20127;-87
2023/07/11 02:07:28;;;;;;;5.53;3.78;;;17.10;99.90;;;;;;4883818;29;20044;-87
2023/07/11 02:09:53;;;;;;;5.68;4.20;;;17.20;99.90;;;;;;4882729;29;20062;-86
2023/07/11 02:12:19;;;;;;;7.18;3.75;;;17.10;99.90;;;;;;4875609;29;20105;-86
2023/07/11 02:14:46;;;;;;;8.57;5.05;;;17.10;99.90;;;;;;4875615;29;20092;-86
2023/07/11 02:17:14;;;;;;;7.45;4.65;;;17.10;99.90;;;;;;4869753;29;20044;-87
2023/07/11 02:19:41;;;;;;;4.55;4.00;;;17.10;99.90;;;;;;4883243;29;20079;-87
2023/07/11 02:22:08;;;;;;;6.38;4.25;;;17.10;99.90;;;;;;4864109;29;20444;-87
2023/07/11 02:24:33;;;;;;;10.07;4.93;;;17.10;99.90;;;;;;4881514;29;20048;-87
2023/07/11 02:26:59;;;;;;;5.57;3.75;;;17.10;99.90;;;;;;4878465;29;20531;-88
2023/07/11 02:29:25;;;;;;;7.75;4.97;;;17.10;99.90;;;;;;4857916;29;20052;-87
2023/07/11 02:31:50;;;;;;;7.18;4.63;;;17.10;99.90;;;;;;4881377;29;20642;-87
2023/07/11 02:34:16;;;;;;;8.80;4.78;;;17.10;99.90;;;;;;4877520;29;20533;-87
2023/07/11 02:36:42;;;;;;;9.55;5.15;;;17.10;99.90;;;;;;4880422;29;20532;-87
2023/07/11 02:39:07;;;;;;;9.43;4.55;;;17.10;99.90;;;;;;4878786;29;20033;-87
2023/07/11 02:41:33;;;;;;;5.65;4.72;;;17.10;99.90;;;;;;4879924;29;20096;-87
2023/07/11 02:43:59;;;;;;;6.10;4.82;;;17.10;99.90;;;;;;4878008;29;20427;-87
2023/07/11 02:46:25;;;;;;;8.60;4.70;;;17.00;99.90;;;;;;4863392;29;20096;-87
2023/07/11 02:48:51;;;;;;;7.45;4.95;;;17.10;99.90;;;;;;4883690;29;20036;-87
2023/07/11 02:51:17;;;;;;;7.65;4.88;;;17.10;99.90;;;;;;4872910;29;20068;-87
2023/07/11 02:53:43;;;;;;;5.43;4.07;;;17.00;99.90;;;;;;4879766;29;20097;-87
2023/07/11 02:56:09;;;;;;;7.57;4.57;;;17.00;99.90;;;;;;4893392;29;20048;-87
2023/07/11 02:58:35;;;;;;;6.18;4.88;;;17.00;99.90;;;;;;4885708;29;20163;-87
2023/07/11 03:01:02;;;;;;;5.80;4.25;;;16.90;99.90;;;;;;4877370;29;20121;-87
2023/07/11 03:03:29;;;;;;;6.93;4.38;;;16.90;99.90;;;;;;4883712;29;20427;-86
2023/07/11 03:05:55;;;;;;;8.50;4.60;;;16.90;99.90;;;;;;4880251;29;20096;-86
2023/07/11 03:08:21;;;;;;;8.27;4.50;;;16.90;99.90;;;;;;4893516;29;20036;-87
2023/07/11 03:10:47;;;;;;;5.57;4.72;;;16.90;99.90;;;;;;4879963;29;20050;-87
2023/07/11 03:13:13;;;;;;;6.43;4.25;;;16.90;99.90;;;;;;4884021;29;20389;-86
2023/07/11 03:15:39;;;;;;;6.65;4.68;;;16.90;99.90;;;;;;4892455;29;20032;-87
2023/07/11 03:18:06;;;;;;;7.45;5.03;;;16.80;99.90;;;;;;4886982;29;20043;-87
2023/07/11 03:20:36;;;;;;;5.88;4.57;;;16.80;99.90;;;;;;4882909;29;20420;-87
2023/07/11 03:23:02;;;;;;;7.68;4.43;;;16.80;99.90;;;;;;4879030;29;20037;-87
2023/07/11 03:25:28;;;;;;;6.97;4.80;;;16.70;99.90;;;;;;4878927;29;20504;-87
2023/07/11 03:27:53;;;;;;;6.30;4.82;;;16.70;99.90;;;;;;4857301;29;20080;-87
2023/07/11 03:30:19;;;;;;;8.13;4.88;;;16.60;99.90;;;;;;4880604;29;20091;-87
2023/07/11 03:32:44;;;;;;;7.72;4.25;;;16.60;99.90;;;;;;4859549;29;20111;-88
2023/07/11 03:35:10;;;;;;;9.30;4.35;;;16.60;99.90;;;;;;4880545;29;20040;-88
2023/07/11 03:37:36;;;;;;;5.75;4.68;;;16.60;99.90;;;;;;4879217;29;20466;-87
2023/07/11 03:40:02;;;;;;;8.27;4.43;;;16.60;99.90;;;;;;4878996;29;20060;-87
2023/07/11 03:42:28;;;;;;;5.15;4.50;;;16.60;99.90;;;;;;4878112;29;20048;-88
2023/07/11 03:44:53;;;;;;;7.00;4.32;;;16.60;99.90;;;;;;4877277;29;20531;-88
2023/07/11 03:47:19;;;;;;;7.53;4.70;;;16.60;99.90;;;;;;4894075;29;20049;-87
2023/07/11 03:49:45;;;;;;;5.88;4.63;;;16.60;99.90;;;;;;4862300;29;20047;-87
2023/07/11 03:52:10;;;;;;;8.35;5.20;;;16.60;99.90;;;;;;4859376;29;20039;-87
2023/07/11 03:54:36;;;;;;;8.73;5.18;;;16.70;99.90;;;;;;4878742;29;20044;-89
2023/07/11 03:57:02;;;;;;;8.00;5.00;;;16.70;99.90;;;;;;4878940;29;20071;-89
2023/07/11 03:59:28;;;;;;;6.70;4.85;;;16.70;99.90;;;;;;4878001;29;20036;-88
2023/07/11 04:01:53;;;;;;;8.30;5.13;;;16.70;99.90;;;;;;4880410;29;20044;-88
2023/07/11 04:04:19;;;;;;;7.70;5.97;;;16.80;99.90;;;;;;4866357;29;20448;-88
2023/07/11 04:06:45;;;;;;;7.47;5.22;;;16.80;99.90;;;;;;4872358;29;20492;-88
2023/07/11 04:09:11;;;;;;;7.20;5.35;;;16.90;99.90;;;;;;4876928;29;20032;-87
2023/07/11 04:11:36;;;;;;;12.27;5.55;;;16.90;99.90;;;;;;4861206;29;20036;-88
2023/07/11 04:14:02;;;;;;;6.72;5.45;;;17.00;99.90;;;;;;4868281;29;20033;-88
2023/07/11 04:16:28;;;;;;;7.45;4.90;;;17.00;99.90;;;;;;4879658;29;20040;-88
2023/07/11 04:18:53;;;;;;;6.63;5.00;;;17.10;99.90;;;;;;4859019;29;20049;-87
2023/07/11 04:21:19;;;;;;;7.95;5.88;;;17.10;99.90;;;;;;4879787;29;20055;-87
2023/07/11 04:23:46;;;;;;;6.68;5.65;;;17.10;99.90;;;;;;4859105;29;20052;-88
2023/07/11 04:26:11;;;;;;;7.30;5.82;;;17.20;99.90;;;;;;4880023;29;20460;-87
2023/07/11 04:28:37;;;;;;;6.65;6.00;;;17.20;99.90;;;;;;4890043;29;20048;-88
2023/07/11 04:31:03;;;;;;;7.85;5.72;;;17.20;99.90;;;;;;4862795;29;20039;-88
2023/07/11 04:33:28;;;;;;;7.65;5.47;;;17.40;99.90;;;;;;4855690;29;20040;-88
2023/07/11 04:35:54;;;;;;;8.60;5.65;;;17.40;99.90;;;;;;4881101;29;20113;-88
2023/07/11 04:38:19;;;;;;;7.43;5.63;;;17.40;99.90;;;;;;4865698;29;20075;-88
2023/07/11 04:40:46;;;;;;;8.88;5.95;;;17.50;99.90;;;;;;4886108;29;20044;-88
2023/07/11 04:43:12;;;;;;;5.50;4.97;;;17.50;99.90;;;;;;4868733;29;20041;-87
2023/07/11 04:45:38;;;;;;;9.30;5.50;;;17.60;99.90;;;;;;4857422;29;20386;-87
2023/07/11 04:48:04;;;;;;;8.10;5.85;;;17.60;99.90;;;;;;4862798;29;20044;-87
2023/07/11 04:50:30;;;;;;;9.15;5.80;;;17.60;99.90;;;;;;4863913;29;20044;-86
2023/07/11 04:52:56;;;;;;;7.25;5.75;;;17.70;99.90;;;;;;4902190;29;20052;-86
2023/07/11 04:55:21;;;;;;;6.85;5.80;;;17.70;99.90;;;;;;4879266;29;20111;-86
2023/07/11 04:57:47;;;;;;;8.02;6.10;;;17.60;99.90;;;;;;4888823;29;20036;-89
2023/07/11 05:00:13;;;;;;;6.93;5.43;;;17.70;99.90;;;;;;4858428;29;20814;-86
2023/07/11 05:02:39;;;;;;;7.03;5.95;;;17.60;99.90;;;;;;4858332;29;20048;-88
2023/07/11 05:05:05;;;;;;;7.05;5.50;;;17.60;99.90;;;;;;4858177;29;20041;-88
2023/07/11 05:07:31;;;;;;;8.70;6.03;;;17.60;99.90;;;;;;4879033;29;20045;-89
2023/07/11 05:09:57;;;;;;;7.70;5.82;;;17.60;99.90;;;;;;4874133;29;20503;-88
2023/07/11 05:12:22;;;;;;;8.20;5.55;;;17.60;99.90;;;;;;4887809;29;20056;-87
2023/07/11 05:14:48;;;;;;;8.63;6.15;;;17.60;99.90;;;;;;4878383;29;20044;-88
2023/07/11 05:17:13;;;;;;;6.63;5.55;;;17.60;99.90;;;;;;4886957;29;20048;-89
2023/07/11 05:19:39;;;;;;;7.38;5.95;;;17.60;99.90;;;;;;4896634;29;20127;-88
2023/07/11 05:22:05;;;;;;;7.50;5.50;;;17.70;99.90;;;;;;4861464;29;20043;-87
2023/07/11 05:24:30;;;;;;;6.45;5.38;;;17.70;99.90;;;;;;4875720;29;20052;-88
2023/07/11 05:26:56;;;;;;;6.93;5.97;;;17.80;99.90;;;;;;4885551;29;20045;-88
2023/07/11 05:29:23;;;;;;;9.25;5.63;;;18.00;99.90;;;;;;4884550;29;20037;-90
2023/07/11 05:31:48;;;;;;;9.90;6.72;;;18.10;99.90;;;;;;4881741;29;20535;-88
2023/07/11 05:34:17;;;;;;;7.22;6.22;;;18.20;99.90;;;;;;4866824;29;20078;-88
2023/07/11 05:36:43;;;;;;;6.38;5.75;;;18.30;99.90;;;;;;4873666;29;20053;-87
2023/07/11 05:39:12;;;;;;;7.15;6.45;;;18.40;99.90;;;;;;4887772;23;20044;-90
2023/07/11 05:41:49;;;;;;;8.13;5.90;;;18.50;99.90;;;;;;4886129;29;20037;-83
2023/07/11 05:44:15;;;;;;;8.13;6.60;;;18.60;99.90;;;;;;4899019;29;20066;-83
2023/07/11 05:46:41;;;;;;;7.10;5.45;;;18.70;99.90;;;;;;4891773;29;20163;-83
2023/07/11 05:49:08;;;;;;;7.35;5.65;;;18.80;99.90;;;;;;4896696;29;20071;-84
2023/07/11 05:51:34;;;;;;;7.88;5.70;;;19.00;99.90;;;;;;4883767;29;20139;-82
2023/07/11 05:54:00;;;;;;;7.47;5.47;;;19.20;99.90;;;;;;4885266;29;20037;-83
2023/07/11 05:56:26;;;;;;;6.30;5.38;;;19.40;99.90;;;;;;4898979;29;20048;-84
2023/07/11 05:58:52;;;;;;;6.57;5.53;;;19.50;99.90;;;;;;4895317;29;20106;-83
2023/07/11 06:01:24;;;;;;;7.03;5.50;;;19.60;99.90;;;;;;4905638;29;20052;-83
2023/07/11 06:03:51;;;;;;;10.82;5.28;;;19.70;99.90;;;;;;4913678;29;20040;-83
2023/07/11 06:06:19;;;;;;;6.35;4.93;;;19.80;99.90;;;;;;4891272;29;20097;-84
2023/07/11 06:08:45;;;;;;;6.57;5.22;;;19.90;99.90;;;;;;4896350;29;20619;-84
2023/07/11 06:11:11;;;;;;;6.88;4.85;;;20.10;99.90;;;;;;4888088;29;20039;-83
2023/07/11 06:13:39;;;;;;;9.75;5.25;;;20.20;99.90;;;;;;4904059;29;20040;-83
2023/07/11 06:16:15;;;;;;;8.77;5.07;;;20.40;99.90;;;;;;4913023;29;20066;-84
2023/07/11 06:18:40;;;;;;;6.35;4.90;;;20.60;99.90;;;;;;4913938;29;20056;-83
2023/07/11 06:21:09;;;;;;;6.90;4.88;;;20.80;99.90;;;;;;4907743;29;20036;-83
2023/07/11 06:23:34;;;;;;;8.05;4.85;;;21.00;99.90;;;;;;4907230;29;20100;-84
2023/07/11 06:26:00;;;;;;;6.50;4.95;;;21.10;99.90;;;;;;4907743;29;20387;-83
2023/07/11 06:28:26;;;;;;;6.70;4.70;;;21.10;99.90;;;;;;4898110;29;20040;-83
2023/07/11 06:31:00;;;;;;;10.77;4.60;;;21.20;99.90;;;;;;4920771;29;20122;-92
2023/07/11 06:34:15;;;;;;;6.30;4.22;;;21.30;99.90;;;;;;4917442;29;20406;-91
2023/07/11 08:20:07;;;;;;;3.63;3.08;;;26.00;99.90;;;;;;4928392;29;20119;-91
2023/07/11 08:26:22;;;;;;;4.68;2.90;;;26.30;99.90;;;;;;4898306;29;20503;-91
2023/07/11 08:37:26;;;;;;;4.93;2.55;;;26.80;98.60;;;;;;4895393;29;20047;-91
2023/07/11 08:45:32;;;;;;;7.97;3.42;;;27.30;97.20;;;;;;4806766;29;20054;-92
2023/07/11 09:18:21;;;;;;;6.78;2.92;;;28.90;89.20;;;;;;4751702;30;20047;-93
2023/07/11 09:21:21;;;;;;;7.15;3.08;;;29.00;83.90;;;;;;4770495;29;20582;-91
2023/07/11 09:24:14;;;;;;;5.50;2.75;;;29.20;85.30;;;;;;4873076;29;20455;-91
2023/07/11 09:30:33;;;;;;;3.88;2.85;;;29.80;87.00;;;;;;4914703;29;20042;-91
2023/07/11 09:33:14;;;;;;;4.15;2.60;;;30.10;79.30;;;;;;4893100;29;20176;-88
2023/07/11 09:35:43;;;;;;;7.35;3.10;;;30.10;82.40;;;;;;4891348;29;20135;-90
2023/07/11 09:38:23;;;;;;;4.65;2.70;;;30.10;81.40;;;;;;4903649;29;20037;-92
2023/07/11 09:41:00;;;;;;;4.90;2.72;;;30.20;80.00;;;;;;4895276;29;20047;-92
2023/07/11 09:43:26;;;;;;;4.28;2.42;;;30.40;80.10;;;;;;4886209;29;20048;-92
2023/07/11 09:45:52;;;;;;;7.03;2.58;;;30.50;77.20;;;;;;4875554;29;20035;-92
2023/07/11 09:48:31;;;;;;;4.15;2.30;;;30.50;74.70;;;;;;4919505;29;20130;-90
2023/07/11 09:51:15;;;;;;;5.13;2.67;;;30.70;74.20;;;;;;4919375;29;20055;-90
2023/07/11 09:53:44;;;;;;;7.28;2.45;;;30.70;71.30;;;;;;4900018;29;20062;-91
2023/07/11 09:56:12;;;;;;;4.60;2.40;;;30.70;68.40;;;;;;4904161;29;20098;-92
2023/07/11 09:58:38;;;;;;;3.53;2.00;;;30.80;66.70;;;;;;4910976;29;20431;-92
2023/07/11 10:01:06;;;;;;;8.05;2.72;;;30.90;66.70;;;;;;4887674;29;20044;-91
2023/07/11 10:03:35;;;;;;;2.85;2.25;;;30.90;63.50;;;;;;4901633;29;20039;-91
2023/07/11 10:06:02;;;;;;;4.85;2.28;;;30.90;64.10;;;;;;4889819;29;20606;-91
2023/07/11 10:08:44;;;;;;;4.00;2.22;;;31.00;63.50;;;;;;4897634;29;20499;-90
2023/07/11 10:11:13;;;;;;;3.13;1.85;;;31.00;59.40;;;;;;4900804;29;20090;-91
2023/07/11 10:13:44;;;;;;;4.13;2.20;;;31.10;62.50;;;;;;4894253;29;20051;-92
2023/07/11 10:16:17;;;;;;;4.00;2.10;;;31.30;62.60;;;;;;4888206;29;20036;-91
2023/07/11 10:18:44;;;;;;;2.90;2.00;;;31.30;61.10;;;;;;4891523;29;20047;-91
2023/07/11 10:21:23;;;;;;;4.00;2.33;;;31.40;61.60;;;;;;4881798;29;20045;-90
2023/07/11 10:23:50;;;;;;;3.90;2.10;;;31.60;60.60;;;;;;4918823;29;20048;-90
2023/07/11 10:26:27;;;;;;;5.22;2.20;;;31.70;61.30;;;;;;4899763;29;20044;-92
2023/07/11 10:29:07;;;;;;;4.22;1.98;;;32.00;60.50;;;;;;4904685;29;20047;-91
2023/07/11 10:31:47;;;;;;;3.33;1.90;;;31.90;56.70;;;;;;4881402;29;20487;-90
2023/07/11 10:34:25;;;;;;;3.22;2.10;;;31.90;58.20;;;;;;4884239;29;20526;-91
2023/07/11 10:36:53;;;;;;;5.13;2.40;;;31.90;58.20;;;;;;4906666;29;20035;-90
2023/07/11 10:39:59;;;;;;;6.22;2.15;;;31.90;58.40;;;;;;4894551;29;20131;-91
2023/07/11 10:42:42;;;;;;;4.63;2.20;;;31.80;56.00;;;;;;4893518;29;20051;-90
2023/07/11 10:45:23;;;;;;;3.85;2.05;;;31.60;57.90;;;;;;4888183;29;20032;-92
2023/07/11 10:48:10;;;;;;;3.03;2.30;;;32.10;59.00;;;;;;4870747;29;20391;-92
2023/07/11 10:50:42;;;;;;;4.50;1.83;;;32.20;56.70;;;;;;4892478;29;20119;-92
2023/07/11 10:53:19;;;;;;;4.60;2.13;;;32.10;56.90;;;;;;4899268;29;20381;-91
2023/07/11 10:55:52;;;;;;;3.13;1.85;;;32.30;58.70;;;;;;4896785;29;20107;-90
2023/07/11 10:58:24;;;;;;;4.25;2.40;;;32.60;58.30;;;;;;4883160;29;20045;-90
2023/07/11 11:01:25;;;;;;;4.88;2.28;;;32.90;57.50;;;;;;4884266;29;20380;-87
2023/07/11 11:03:59;;;;;;;3.42;2.25;;;33.10;58.10;;;;;;4895707;29;20134;-90
2023/07/11 11:07:05;;;;;;;4.53;1.98;;;33.30;56.70;;;;;;4880469;29;20044;-92
2023/07/11 11:09:37;;;;;;;2.40;1.63;;;33.70;57.40;;;;;;4881035;29;20135;-92
2023/07/11 11:12:24;;;;;;;3.83;2.05;;;33.60;55.70;;;;;;4884521;29;20122;-91
2023/07/11 11:15:09;;;;;;;4.25;2.08;;;33.60;53.70;;;;;;4877394;29;20044;-90
2023/07/11 11:18:15;;;;;;;5.57;2.65;;;33.40;56.30;;;;;;4866851;29;20036;-90
2023/07/11 11:21:01;;;;;;;3.05;1.92;;;33.40;55.30;;;;;;4895981;29;20502;-90
2023/07/11 11:23:29;;;;;;;3.35;2.08;;;33.60;54.80;;;;;;4908520;29;20049;-90
2023/07/11 11:26:20;;;;;;;2.08;1.75;;;33.60;55.80;;;;;;4877734;29;20109;-92
2023/07/11 11:29:03;;;;;;;4.68;2.15;;;33.70;54.70;;;;;;4894380;29;20123;-91
2023/07/11 11:31:31;;;;;;;4.55;1.80;;;33.60;55.80;;;;;;4885202;29;20043;-89
2023/07/11 11:34:22;;;;;;;3.42;2.28;;;33.80;55.20;;;;;;4904898;29;20065;-92
2023/07/11 11:37:07;;;;;;;3.30;1.75;;;34.00;53.30;;;;;;4904996;29;20048;-91
2023/07/11 11:39:43;;;;;;;2.63;2.00;;;34.00;53.80;;;;;;4926537;23;20064;-85
2023/07/11 11:42:20;;;;;;;6.07;2.40;;;33.90;53.90;;;;;;4880007;29;20036;-85
2023/07/11 11:45:03;;;;;;;4.18;2.20;;;34.10;53.10;;;;;;4862893;29;20567;-85
2023/07/11 11:47:31;;;;;;;2.10;1.80;;;34.00;51.80;;;;;;4863138;29;20554;-86
2023/07/11 11:49:58;;;;;;;5.13;1.73;;;34.10;53.50;;;;;;4867756;29;20119;-85
2023/07/11 11:52:24;;;;;;;5.18;2.20;;;34.20;53.80;;;;;;4878794;29;20032;-86
2023/07/11 11:54:51;;;;;;;3.58;2.35;;;34.50;53.80;;;;;;4884690;29;20074;-84
2023/07/11 11:57:24;;;;;;;4.78;2.40;;;34.30;53.40;;;;;;4863058;29;20044;-86
2023/07/11 11:59:51;;;;;;;4.72;2.20;;;33.80;52.50;;;;;;4876607;29;20055;-85
2023/07/11 12:02:29;;;;;;;4.43;1.90;;;33.20;52.70;;;;;;4862850;29;20044;-85
2023/07/11 12:05:13;;;;;;;3.55;2.20;;;33.10;53.70;;;;;;4880265;29;20418;-85
2023/07/11 12:07:40;;;;;;;4.57;2.08;;;33.00;53.90;;;;;;4878580;29;20051;-85
2023/07/11 12:10:19;;;;;;;2.63;2.08;;;33.10;53.70;;;;;;4858330;29;20059;-85
2023/07/11 12:13:06;;;;;;;3.38;1.85;;;33.60;54.70;;;;;;4879667;29;20551;-85
2023/07/11 12:15:37;;;;;;;2.58;1.70;;;34.10;55.10;;;;;;4860230;29;20111;-85
2023/07/11 12:18:26;;;;;;;3.25;2.10;;;33.80;53.60;;;;;;4875355;29;20107;-85
2023/07/11 12:21:13;;;;;;;3.40;2.00;;;33.90;52.50;;;;;;4862265;29;20043;-85
2023/07/11 12:24:19;;;;;;;3.15;1.85;;;33.70;51.30;;;;;;4886808;29;20185;-85
2023/07/11 12:26:45;;;;;;;3.60;2.13;;;34.00;51.80;;;;;;4863233;29;20064;-85
2023/07/11 12:29:49;;;;;;;2.95;2.00;;;34.00;52.60;;;;;;4890224;29;20123;-86
2023/07/11 12:32:40;;;;;;;3.38;1.80;;;33.40;51.10;;;;;;4868275;29;20045;-85
2023/07/11 12:35:06;;;;;;;2.78;1.80;;;33.40;50.40;;;;;;4867126;29;20041;-85
2023/07/11 12:37:37;;;;;;;2.85;2.00;;;33.80;50.80;;;;;;4869070;29;20146;-85
2023/07/11 12:40:33;;;;;;;2.40;2.00;;;33.50;50.30;;;;;;4867024;29;20068;-86
2023/07/11 12:43:14;;;;;;;3.28;1.80;;;33.60;50.50;;;;;;4864769;29;20056;-85
2023/07/11 12:45:40;;;;;;;3.30;1.88;;;33.80;50.30;;;;;;4865507;29;20585;-85
2023/07/11 12:48:15;;;;;;;3.17;2.10;;;33.70;50.20;;;;;;4877290;29;20093;-85
2023/07/11 12:50:52;;;;;;;3.55;2.28;;;33.50;50.50;;;;;;4867776;29;20099;-84
2023/07/11 12:53:19;;;;;;;4.20;1.90;;;33.60;50.20;;;;;;4869722;29;20033;-86
2023/07/11 12:55:47;;;;;;;3.10;2.35;;;33.70;49.70;;;;;;4867615;29;20495;-84
2023/07/11 12:58:25;;;;;;;4.00;2.30;;;33.80;49.00;;;;;;4871377;29;20127;-85
2023/07/11 13:00:53;;;;;;;3.50;2.10;;;34.10;48.20;;;;;;4884595;29;20137;-84
2023/07/11 13:03:32;;;;;;;3.17;2.05;;;34.30;48.30;;;;;;4870589;29;20044;-84
2023/07/11 13:06:04;;;;;;;2.67;2.00;;;33.80;48.60;;;;;;4870729;29;20040;-84
2023/07/11 13:08:31;;;;;;;3.47;2.40;;;33.80;48.50;;;;;;4869943;29;20045;-85
2023/07/11 13:10:59;;;;;;;4.20;2.25;;;33.70;49.00;;;;;;4884488;29;20037;-85
2023/07/11 13:13:26;;;;;;;2.50;2.03;;;33.60;48.80;;;;;;4869591;29;20040;-85
2023/07/11 13:15:53;;;;;;;4.57;2.15;;;33.20;48.80;;;;;;4869874;29;20036;-84
2023/07/11 13:18:29;;;;;;;5.30;2.22;;;32.80;48.90;;;;;;4888281;29;20040;-85
2023/07/11 13:20:56;;;;;;;3.42;2.10;;;32.90;49.00;;;;;;4870291;29;20040;-84
2023/07/11 13:23:22;;;;;;;3.50;1.98;;;32.90;50.80;;;;;;4885517;29;20045;-85
2023/07/11 13:25:48;;;;;;;2.67;2.13;;;33.00;50.00;;;;;;4869432;29;20055;-85
2023/07/11 13:28:19;;;;;;;3.85;2.03;;;32.80;50.00;;;;;;4887624;29;20115;-84
2023/07/11 13:30:45;;;;;;;2.95;2.00;;;33.10;50.60;;;;;;4883193;29;20051;-84
2023/07/11 13:33:17;;;;;;;3.40;2.00;;;33.30;49.70;;;;;;4868357;29;20127;-85
2023/07/11 13:35:51;;;;;;;3.05;1.98;;;33.50;49.80;;;;;;4870358;29;20037;-85
2023/07/11 13:38:17;;;;;;;2.83;1.90;;;33.80;49.50;;;;;;4876721;29;20749;-84
2023/07/11 13:40:42;;;;;;;3.20;1.92;;;33.70;49.30;;;;;;4866193;29;20119;-83
2023/07/11 13:43:23;;;;;;;4.25;1.85;;;33.60;49.40;;;;;;4871702;29;20046;-83
2023/07/11 13:45:50;;;;;;;3.38;2.63;;;33.90;50.50;;;;;;4871920;29;20044;-83
2023/07/11 13:48:23;;;;;;;2.30;2.10;;;34.40;50.20;;;;;;4869360;29;20052;-83
2023/07/11 13:51:24;;;;;;;3.58;2.00;;;34.70;49.10;;;;;;4867930;29;20029;-85
2023/07/11 13:53:54;;;;;;;4.80;2.03;;;34.60;47.70;;;;;;4863809;29;20116;-83
2023/07/11 13:56:20;;;;;;;3.35;2.15;;;34.40;50.00;;;;;;4881930;29;20029;-83
2023/07/11 13:58:46;;;;;;;4.30;1.90;;;34.90;50.10;;;;;;4878838;29;20044;-84
2023/07/11 14:01:20;;;;;;;5.03;2.30;;;34.70;49.30;;;;;;4880349;29;20049;-84
2023/07/11 14:03:46;;;;;;;4.65;1.95;;;34.50;48.80;;;;;;4872692;29;20072;-84
2023/07/11 14:06:14;;;;;;;4.93;2.10;;;34.30;49.70;;;;;;4869151;29;20648;-84
2023/07/11 14:08:43;;;;;;;4.90;2.17;;;34.00;51.30;;;;;;4870552;29;20055;-84
2023/07/11 14:11:35;;;;;;;4.18;2.17;;;34.20;52.00;;;;;;4869997;29;20511;-85
2023/07/11 14:14:01;;;;;;;7.23;3.00;;;34.90;49.70;;;;;;4880092;29;20045;-83
2023/07/11 14:16:29;;;;;;;4.13;2.20;;;34.90;49.40;;;;;;4886511;29;20534;-84
2023/07/11 14:18:55;;;;;;;4.80;2.38;;;34.70;49.50;;;;;;4865893;29;20559;-84
2023/07/11 14:21:20;;;;;;;3.10;2.33;;;34.70;49.50;;;;;;4888380;29;20064;-83
2023/07/11 14:23:46;;;;;;;5.43;2.40;;;34.40;49.40;;;;;;4872092;29;20111;-84
2023/07/11 14:26:14;;;;;;;2.85;2.10;;;34.10;50.00;;;;;;4887638;29;20602;-84
2023/07/11 14:28:40;;;;;;;3.47;2.35;;;33.80;50.00;;;;;;4885131;29;20431;-84
2023/07/11 14:31:19;;;;;;;4.30;2.35;;;33.50;50.20;;;;;;4880541;29;20050;-83
2023/07/11 14:33:45;;;;;;;4.40;2.40;;;33.50;50.50;;;;;;4871043;29;20041;-83
2023/07/11 14:36:11;;;;;;;2.55;2.05;;;33.70;51.00;;;;;;4870603;29;20055;-85
2023/07/11 14:38:39;;;;;;;4.03;2.33;;;33.80;51.70;;;;;;4870751;29;20672;-84
2023/07/11 14:41:05;;;;;;;4.07;2.40;;;34.20;51.40;;;;;;4871573;29;20041;-83
2023/07/11 14:43:31;;;;;;;3.47;2.60;;;34.50;50.10;;;;;;4888807;29;20128;-83
2023/07/11 14:45:57;;;;;;;4.90;2.67;;;34.00;50.10;;;;;;4874600;29;20414;-82
2023/07/11 14:48:26;;;;;;;3.88;2.47;;;33.50;51.10;;;;;;4890188;29;20386;-83
2023/07/11 14:51:04;;;;;;;4.85;2.38;;;33.20;52.10;;;;;;4873137;29;20040;-83
2023/07/11 14:53:38;;;;;;;3.75;2.33;;;32.90;52.40;;;;;;4879891;29;20085;-82
2023/07/11 14:56:13;;;;;;;3.30;2.25;;;32.40;53.80;;;;;;4888619;29;20036;-83
2023/07/11 14:58:44;;;;;;;5.70;2.60;;;32.60;54.10;;;;;;4880508;29;20051;-83
2023/07/11 15:01:14;;;;;;;3.22;2.28;;;32.70;54.90;;;;;;4881217;29;20035;-82
2023/07/11 15:03:40;;;;;;;3.15;2.40;;;32.80;54.10;;;;;;4880664;29;20064;-83
2023/07/11 15:06:05;;;;;;;4.03;2.40;;;32.90;54.00;;;;;;4906646;29;20043;-83
2023/07/11 15:08:31;;;;;;;4.05;2.83;;;33.40;53.10;;;;;;4874487;29;20045;-83
2023/07/11 15:11:18;;;;;;;3.65;2.60;;;33.80;53.50;;;;;;4874338;29;20044;-82
2023/07/11 15:13:43;;;;;;;3.90;2.88;;;34.00;53.70;;;;;;4876663;29;20039;-82
2023/07/11 15:16:09;;;;;;;7.20;2.45;;;34.20;53.40;;;;;;4875294;29;20200;-83
2023/07/11 15:18:35;;;;;;;4.28;2.40;;;34.40;52.20;;;;;;4868687;29;20040;-84
2023/07/11 15:21:01;;;;;;;4.57;2.60;;;34.10;51.80;;;;;;4885209;29;20042;-81
2023/07/11 15:23:27;;;;;;;5.25;2.50;;;33.50;52.20;;;;;;4869065;29;20044;-81
2023/07/11 15:25:52;;;;;;;4.03;2.60;;;32.90;53.20;;;;;;4873670;29;20496;-81
2023/07/11 15:28:25;;;;;;;4.40;2.70;;;33.40;54.50;;;;;;4882486;29;20059;-81
2023/07/11 15:30:54;;;;;;;2.75;2.35;;;33.90;54.00;;;;;;4867632;29;20392;-79
2023/07/11 15:33:34;;;;;;;4.10;2.53;;;34.30;54.00;;;;;;4862093;29;20060;-83
2023/07/11 15:36:02;;;;;;;5.75;2.78;;;34.60;53.10;;;;;;4888447;29;20124;-84
2023/07/11 15:38:29;;;;;;;4.70;2.60;;;34.60;51.60;;;;;;4879720;29;20040;-81